.
WxDataArchive / Data Records for 2013-09-30
2013-09-29 September 2013 2013-10-01

Data Records for Monday, 30 September 2013

Time	Temp	Chill	HIndex	Humid	Dewpt	 Wind 	HiWind	WindDir	Rain 	Barom 
-----	----	-----	------	-----	-----	------	------	-------	-----	----- 
00:00	54.7	54.7	54.7	94	53.0	0	0	---	0.00	29.991 
00:05	54.7	54.7	54.7	94	53.0	0	0	---	0.00	29.991 
00:10	54.5	54.5	54.5	94	52.8	0	0	---	0.00	29.991 
00:15	54.7	54.7	54.7	95	53.3	0	0	---	0.00	29.990 
00:20	54.7	54.7	54.7	95	53.3	0	0	---	0.00	29.990 
00:25	54.7	54.7	54.7	95	53.3	0	0	---	0.00	29.990 
00:30	54.5	54.5	54.5	95	53.1	0	0	---	0.00	29.990 
00:35	54.4	54.4	54.4	95	53.0	0	0	---	0.00	29.990 
00:40	54.1	54.1	54.1	95	52.7	0	0	---	0.00	29.990 
00:45	53.9	53.9	53.9	95	52.5	0	0	---	0.00	29.991 
00:50	53.8	53.8	53.8	95	52.4	0	0	---	0.00	29.991 
00:55	53.6	53.6	53.6	95	52.2	0	0	---	0.00	29.991 
01:00	53.5	53.5	53.5	95	52.1	0	0	---	0.00	29.992 
01:05	53.3	53.3	53.3	95	51.9	0	0	---	0.00	29.992 
01:10	53.1	53.1	53.1	95	51.7	0	0	---	0.00	29.992 
01:15	52.9	52.9	52.9	95	51.5	0	0	---	0.00	29.993 
01:20	52.8	52.8	52.8	95	51.4	0	0	---	0.00	29.993 
01:25	52.6	52.6	52.6	95	51.2	0	0	---	0.00	29.993 
01:30	52.5	52.5	52.5	95	51.1	0	0	---	0.00	29.993 
01:35	52.5	52.5	52.5	95	51.1	0	0	---	0.00	29.993 
01:40	52.3	52.3	52.3	95	50.9	0	0	---	0.00	29.993 
01:45	52.2	52.2	52.2	95	50.8	0	0	---	0.00	29.994 
01:50	52.0	52.0	52.0	95	50.6	0	0	---	0.00	29.994 
01:55	52.0	52.0	52.0	95	50.6	0	0	---	0.00	29.994 
02:00	52.0	52.0	52.0	95	50.6	0	0	---	0.00	29.996 
02:05	52.0	52.0	52.0	95	50.6	0	0	---	0.00	29.996 
02:10	52.0	52.0	52.0	95	50.6	0	0	---	0.00	29.996 
02:15	51.9	51.9	51.9	95	50.5	0	0	---	0.00	29.995 
02:20	51.9	51.9	51.9	95	50.5	0	0	---	0.00	29.995 
02:25	51.9	51.9	51.9	95	50.5	0	0	---	0.00	29.995 
02:30	51.9	51.9	51.9	96	50.8	0	0	---	0.00	29.995 
02:35	52.0	52.0	52.0	96	50.9	0	0	---	0.00	29.995 
02:40	52.0	52.0	52.0	96	50.9	0	0	---	0.00	29.995 
02:45	52.0	52.0	52.0	96	50.9	0	0	---	0.00	29.993 
02:50	52.2	52.2	52.2	96	51.1	0	0	---	0.00	29.993 
02:55	52.2	52.2	52.2	96	51.1	0	0	---	0.00	29.993 
03:00	52.0	52.0	52.0	96	50.9	0	0	---	0.00	29.991 
03:05	52.0	52.0	52.0	96	50.9	0	0	---	0.00	29.991 
03:10	52.2	52.2	52.2	96	51.1	0	0	---	0.00	29.991 
03:15	52.2	52.2	52.2	96	51.1	0	0	---	0.00	29.991 
03:20	52.3	52.3	52.3	96	51.2	0	0	---	0.00	29.991 
03:25	52.3	52.3	52.3	96	51.2	0	0	---	0.00	29.991 
03:30	52.3	52.3	52.3	96	51.2	0	0	---	0.00	29.987 
03:35	52.3	52.3	52.3	96	51.2	0	0	---	0.00	29.987 
03:40	52.5	52.5	52.5	96	51.4	0	0	---	0.00	29.987 
03:45	52.5	52.5	52.5	96	51.4	0	0	---	0.00	29.979 
03:50	52.5	52.5	52.5	96	51.4	0	0	---	0.01	29.979 
03:55	52.5	52.5	52.5	96	51.4	0	0	---	0.00	29.979 
04:00	52.5	52.5	52.5	96	51.4	0	0	---	0.00	29.978 
04:05	52.5	52.5	52.5	96	51.4	0	0	---	0.00	29.978 
04:10	52.5	52.5	52.5	96	51.4	0	0	---	0.00	29.978 
04:15	52.6	52.6	52.6	96	51.5	0	0	---	0.00	29.978 
04:20	52.6	52.6	52.6	96	51.5	0	0	---	0.00	29.978 
04:25	52.8	52.8	52.8	96	51.7	0	0	---	0.00	29.978 
04:30	52.8	52.8	52.8	96	51.7	0	0	---	0.00	29.979 
04:35	52.8	52.8	52.8	96	51.7	0	0	---	0.00	29.979 
04:40	52.8	52.8	52.8	96	51.7	0	0	---	0.00	29.979 
04:45	52.8	52.8	52.8	96	51.7	0	0	---	0.00	29.981 
04:50	52.8	52.8	52.8	96	51.7	0	0	---	0.00	29.981 
04:55	52.6	52.6	52.6	96	51.5	0	0	---	0.00	29.981 
05:00	52.5	52.5	52.5	96	51.4	0	0	---	0.00	29.983 
05:05	52.5	52.5	52.5	96	51.4	0	0	---	0.00	29.983 
05:10	52.5	52.5	52.5	96	51.4	0	0	---	0.00	29.983 
05:15	52.5	52.5	52.5	96	51.4	0	0	---	0.00	29.979 
05:20	52.5	52.5	52.5	96	51.4	0	0	---	0.00	29.979 
05:25	52.3	52.3	52.3	96	51.2	0	0	---	0.00	29.979 
05:30	52.3	52.3	52.3	96	51.2	0	0	---	0.00	29.983 
05:35	52.2	52.2	52.2	96	51.1	0	0	---	0.00	29.983 
05:40	52.2	52.2	52.2	96	51.1	0	0	---	0.00	29.983 
05:45	52.0	52.0	52.0	96	50.9	0	0	---	0.00	29.980 
05:50	52.0	52.0	52.0	96	50.9	0	0	---	0.00	29.980 
05:55	52.0	52.0	52.0	96	50.9	0	0	---	0.00	29.980 
06:00	52.0	52.0	52.0	96	50.9	0	0	---	0.00	29.982 
06:05	52.0	52.0	52.0	96	50.9	0	0	---	0.00	29.982 
06:10	52.0	52.0	52.0	96	50.9	0	0	---	0.00	29.982 
06:15	52.0	52.0	52.0	96	50.9	0	0	---	0.00	29.983 
06:20	52.2	52.2	52.2	96	51.1	0	0	---	0.00	29.983 
06:25	52.2	52.2	52.2	96	51.1	0	0	---	0.00	29.983 
06:30	52.2	52.2	52.2	96	51.1	0	0	---	0.00	29.988 
06:35	52.2	52.2	52.2	96	51.1	0	0	---	0.00	29.988 
06:40	52.3	52.3	52.3	96	51.2	0	0	---	0.00	29.988 
06:45	52.3	52.3	52.3	96	51.2	0	0	---	0.00	29.990 
06:50	52.3	52.3	52.3	96	51.2	0	0	---	0.00	29.990 
06:55	52.5	52.5	52.5	96	51.4	0	0	---	0.00	29.990 
07:00	52.5	52.5	52.5	96	51.4	0	0	---	0.00	29.994 
07:05	52.5	52.5	52.5	96	51.4	0	0	---	0.00	29.994 
07:10	52.6	52.6	52.6	96	51.5	0	0	---	0.00	29.994 
07:15	52.6	52.6	52.6	96	51.5	0	0	---	0.00	29.995 
07:20	52.6	52.6	52.6	96	51.5	0	0	---	0.00	29.995 
07:25	52.6	52.6	52.6	96	51.5	0	0	---	0.00	29.995 
07:30	52.5	52.5	52.5	96	51.4	0	0	---	0.00	29.999 
07:35	52.3	52.3	52.3	96	51.2	0	0	---	0.00	29.999 
07:40	52.3	52.3	52.3	96	51.2	0	0	---	0.00	29.999 
07:45	52.5	52.5	52.5	96	51.4	0	0	---	0.00	30.005 
07:50	52.5	52.5	52.5	96	51.4	0	0	---	0.00	30.005 
07:55	52.6	52.6	52.6	96	51.5	0	0	---	0.00	30.005 
08:00	52.8	52.8	52.8	96	51.7	0	0	---	0.00	30.007 
08:05	52.8	52.8	52.8	96	51.7	0	0	---	0.00	30.007 
08:10	52.8	52.8	52.8	96	51.7	0	1	315	0.00	30.007 
08:15	52.9	52.9	52.9	96	51.8	0	1	315	0.00	30.009 
08:20	52.9	52.9	52.9	96	51.8	0	1	315	0.00	30.009 
08:25	52.9	52.9	52.9	96	51.8	0	1	315	0.00	30.009 
08:30	53.1	53.1	53.1	96	52.0	0	1	315	0.00	30.009 
08:35	53.1	53.1	53.1	97	52.3	0	0	---	0.00	30.009 
08:40	53.1	53.1	53.1	97	52.3	0	1	315	0.00	30.009 
08:45	53.2	53.2	53.2	97	52.4	0	1	315	0.00	30.010 
08:50	53.2	53.2	53.2	97	52.4	0	0	---	0.00	30.010 
08:55	53.3	53.3	53.3	97	52.5	0	0	---	0.00	30.010 
09:00	53.3	53.3	53.3	97	52.5	0	0	---	0.00	30.013 
09:05	53.5	53.5	53.5	97	52.7	0	0	---	0.00	30.013 
09:10	53.5	53.5	53.5	97	52.7	0	0	---	0.00	30.013 
09:15	53.8	53.8	53.8	97	53.0	0	1	315	0.00	30.017 
09:20	53.9	53.9	53.9	97	53.1	0	0	---	0.00	30.017 
09:25	54.2	54.2	54.2	97	53.4	0	0	---	0.00	30.017 
09:30	54.4	54.4	54.4	97	53.6	0	1	315	0.00	30.019 
09:35	54.4	54.4	54.4	97	53.6	0	0	---	0.00	30.019 
09:40	54.5	54.5	54.5	97	53.7	0	1	315	0.00	30.019 
09:45	54.5	54.5	54.5	97	53.7	0	0	---	0.00	30.014 
09:50	54.7	54.7	54.7	97	53.9	0	1	315	0.00	30.014 
09:55	55.0	55.0	55.0	97	54.2	0	1	315	0.00	30.014 
10:00	55.3	55.3	55.3	97	54.5	0	2	315	0.00	30.016 
10:05	55.3	55.3	55.3	97	54.5	0	2	315	0.00	30.016 
10:10	55.6	55.6	55.6	97	54.8	0	0	---	0.00	30.016 
10:15	55.7	55.7	55.7	97	54.9	0	2	315	0.00	30.011 
10:20	55.9	55.9	55.9	97	55.1	0	0	---	0.00	30.011 
10:25	56.3	56.3	56.3	97	55.5	0	1	315	0.00	30.011 
10:30	56.5	56.5	56.5	97	55.7	0	1	315	0.00	30.010 
10:35	56.5	56.5	56.5	97	55.7	0	1	315	0.00	30.010 
10:40	56.7	56.7	56.7	97	55.9	0	0	---	0.00	30.010 
10:45	57.0	57.0	57.0	97	56.2	0	0	---	0.00	30.014 
10:50	57.0	57.0	57.0	97	56.2	0	1	315	0.00	30.014 
10:55	56.7	56.7	56.7	97	55.9	0	0	---	0.00	30.014 
11:00	56.9	56.9	56.9	97	56.1	0	1	315	0.00	30.011 
11:05	57.0	57.0	57.0	97	56.2	0	0	---	0.00	30.011 
11:10	57.2	57.2	57.2	97	56.4	0	1	315	0.00	30.011 
11:15	57.3	57.3	57.3	97	56.5	0	0	---	0.00	30.010 
11:20	57.6	57.6	57.6	97	56.8	0	1	315	0.00	30.010 
11:25	58.3	58.3	58.3	97	57.5	0	2	315	0.00	30.010 
11:30	58.7	58.7	58.7	97	57.8	0	2	315	0.00	30.007 
11:35	59.0	59.0	59.0	97	58.1	0	2	315	0.00	30.007 
11:40	59.2	59.2	59.2	97	58.3	0	1	315	0.00	30.007 
11:45	59.2	59.2	59.2	96	58.1	0	1	315	0.00	30.006 
11:50	59.2	59.2	59.2	96	58.1	0	1	315	0.00	30.006 
11:55	59.3	59.3	59.3	96	58.2	0	1	315	0.00	30.006 
12:00	59.8	59.8	59.8	96	58.7	0	1	315	0.00	29.993 
12:05	60.4	60.4	60.4	96	59.3	1	2	315	0.00	29.993 
12:10	61.3	61.3	61.3	96	60.1	0	2	315	0.00	29.993 
12:15	62.1	62.1	62.1	96	60.9	1	4	45	0.00	29.988 
12:20	63.1	63.1	63.1	95	61.6	0	2	112	0.00	29.988 
12:25	63.4	63.4	63.4	92	61.0	0	2	112	0.00	29.988 
12:30	63.5	63.5	63.5	90	60.5	0	2	112	0.00	29.985 
12:35	63.7	63.7	63.7	89	60.4	0	1	112	0.00	29.985 
12:40	64.5	64.5	64.5	88	60.9	0	1	112	0.00	29.985 
12:45	65.0	65.0	65.0	84	60.0	1	4	90	0.00	29.991 
12:50	65.5	65.5	65.5	83	60.2	0	1	90	0.00	29.991 
12:55	65.8	65.8	65.8	79	59.1	0	1	90	0.00	29.991 
13:00	65.8	65.8	65.8	78	58.7	0	1	90	0.00	29.996 
13:05	65.6	65.6	65.6	77	58.2	0	2	90	0.00	29.996 
13:10	65.5	65.5	65.5	77	58.1	0	3	90	0.00	29.996 
13:15	65.2	65.2	65.2	77	57.8	0	1	90	0.00	29.991 
13:20	64.8	64.8	64.8	77	57.4	0	0	---	0.00	29.991 
13:25	65.2	65.2	65.2	79	58.5	0	3	90	0.00	29.991 
13:30	66.1	66.1	66.1	78	59.0	0	2	90	0.00	29.988 
13:35	67.1	67.1	67.1	74	58.5	0	2	90	0.00	29.988 
13:40	67.4	67.4	67.4	72	58.1	1	3	90	0.00	29.988 
13:45	67.4	67.4	67.4	71	57.7	1	3	90	0.00	29.980 
13:50	67.3	67.3	67.3	71	57.6	1	2	90	0.00	29.980 
13:55	67.3	67.3	67.3	70	57.2	0	2	90	0.00	29.980 
14:00	67.3	67.3	67.3	69	56.8	1	3	90	0.00	29.976 
14:05	67.3	67.3	67.3	69	56.8	1	2	90	0.00	29.976 
14:10	67.6	67.6	67.6	69	57.1	0	1	90	0.00	29.976 
14:15	68.1	68.1	68.1	69	57.5	1	3	270	0.00	29.970 
14:20	68.8	68.8	68.8	68	57.8	1	4	270	0.00	29.970 
14:25	69.4	69.4	69.4	65	57.1	1	3	68	0.00	29.970 
14:30	69.9	69.9	69.9	63	56.7	1	4	315	0.00	29.956 
14:35	70.1	70.1	70.1	62	56.5	1	3	338	0.00	29.956 
14:40	70.1	70.1	70.1	61	56.0	1	2	270	0.00	29.956 
14:45	69.9	69.9	69.9	62	56.3	1	3	270	0.00	29.948 
14:50	69.9	69.9	69.9	63	56.7	1	3	270	0.00	29.948 
14:55	70.3	70.3	70.3	62	56.7	0	2	270	0.00	29.948 
15:00	70.3	70.3	70.3	60	55.7	0	2	270	0.00	29.937 
15:05	70.3	70.3	70.3	62	56.7	0	1	270	0.00	29.937 
15:10	70.4	70.4	70.4	60	55.8	1	2	292	0.00	29.937 
15:15	70.8	70.8	70.8	59	55.7	1	5	68	0.00	29.935 
15:20	70.8	70.8	70.8	60	56.2	1	2	68	0.00	29.935 
15:25	70.9	70.9	70.9	59	55.8	0	2	68	0.00	29.935 
15:30	71.3	71.3	71.3	57	55.3	0	2	315	0.00	29.930 
15:35	71.6	71.6	71.6	56	55.1	1	3	315	0.00	29.930 
15:40	71.8	71.8	71.8	57	55.7	1	3	270	0.00	29.930 
15:45	71.8	71.8	71.8	57	55.7	0	2	270	0.00	29.924 
15:50	71.8	71.8	71.8	57	55.7	0	3	270	0.00	29.924 
15:55	71.3	71.3	71.3	58	55.7	1	3	270	0.00	29.924 
16:00	71.1	71.1	71.1	56	54.6	1	3	270	0.00	29.922 
16:05	71.1	71.1	71.1	56	54.6	1	3	270	0.00	29.922 
16:10	71.1	71.1	71.1	57	55.1	0	1	270	0.00	29.922 
16:15	70.9	70.9	70.9	55	53.9	1	3	270	0.00	29.920 
16:20	70.9	70.9	70.9	56	54.4	1	4	270	0.00	29.920 
16:25	71.1	71.1	71.1	55	54.1	1	3	270	0.00	29.920 
16:30	70.8	70.8	70.8	54	53.3	1	2	270	0.00	29.921 
16:35	70.8	70.8	70.8	56	54.3	1	3	270	0.00	29.921 
16:40	70.9	70.9	70.9	54	53.4	1	3	315	0.00	29.921 
16:45	70.9	70.9	70.9	54	53.4	1	4	270	0.00	29.921 
16:50	70.9	70.9	70.9	53	52.9	2	4	270	0.00	29.921 
16:55	70.9	70.9	70.9	55	53.9	1	4	315	0.00	29.921 
17:00	70.8	70.8	70.8	54	53.3	0	2	315	0.00	29.923 
17:05	70.6	70.6	70.6	55	53.6	1	4	315	0.00	29.923 
17:10	70.8	70.8	70.8	55	53.8	1	3	338	0.00	29.923 
17:15	71.3	71.3	71.3	53	53.3	1	7	270	0.00	29.925 
17:20	71.3	71.3	71.3	53	53.3	0	2	292	0.00	29.925 
17:25	71.3	71.3	71.3	53	53.3	0	3	292	0.00	29.925 
17:30	71.3	71.3	71.3	53	53.3	0	2	292	0.00	29.923 
17:35	71.3	71.3	71.3	52	52.8	0	2	292	0.00	29.923 
17:40	71.3	71.3	71.3	53	53.3	0	2	292	0.00	29.923 
17:45	71.1	71.1	71.1	54	53.6	0	2	292	0.00	29.924 
17:50	71.1	71.1	71.1	54	53.6	0	2	292	0.00	29.924 
17:55	71.1	71.1	71.1	54	53.6	0	2	292	0.00	29.924 
18:00	71.1	71.1	71.1	54	53.6	1	3	292	0.00	29.925 
18:05	71.1	71.1	71.1	55	54.1	0	1	292	0.00	29.925 
18:10	70.9	70.9	70.9	55	53.9	0	2	292	0.00	29.925 
18:15	70.9	70.9	70.9	55	53.9	0	1	292	0.00	29.922 
18:20	70.8	70.8	70.8	55	53.8	0	1	292	0.00	29.922 
18:25	70.8	70.8	70.8	56	54.3	0	1	292	0.00	29.922 
18:30	70.6	70.6	70.6	56	54.1	0	0	---	0.00	29.922 
18:35	70.3	70.3	70.3	57	54.3	0	1	292	0.00	29.922 
18:40	70.3	70.3	70.3	57	54.3	0	1	292	0.00	29.922 
18:45	70.1	70.1	70.1	58	54.6	0	0	---	0.00	29.925 
18:50	69.9	69.9	69.9	59	54.9	0	0	---	0.00	29.925 
18:55	69.6	69.6	69.6	59	54.6	0	0	---	0.00	29.925 
19:00	69.3	69.3	69.3	60	54.8	0	0	---	0.00	29.925 
19:05	68.9	68.9	68.9	61	54.9	0	0	---	0.00	29.925 
19:10	68.6	68.6	68.6	61	54.6	0	0	---	0.00	29.925 
19:15	68.3	68.3	68.3	62	54.8	0	0	---	0.00	29.929 
19:20	67.8	67.8	67.8	63	54.7	0	0	---	0.00	29.929 
19:25	67.1	67.1	67.1	65	54.9	0	0	---	0.00	29.929 
19:30	66.6	66.6	66.6	66	54.9	0	0	---	0.00	29.937 
19:35	66.1	66.1	66.1	67	54.8	0	0	---	0.00	29.937 
19:40	65.6	65.6	65.6	68	54.7	0	0	---	0.00	29.937 
19:45	65.2	65.2	65.2	68	54.4	0	0	---	0.00	29.941 
19:50	64.7	64.7	64.7	69	54.3	0	0	---	0.00	29.941 
19:55	64.3	64.3	64.3	71	54.7	0	0	---	0.00	29.941 
20:00	63.9	63.9	63.9	73	55.1	0	0	---	0.00	29.944 
20:05	63.4	63.4	63.4	73	54.6	0	0	---	0.00	29.944 
20:10	63.1	63.1	63.1	75	55.0	0	0	---	0.00	29.944 
20:15	62.7	62.7	62.7	76	55.0	0	0	---	0.00	29.947 
20:20	62.4	62.4	62.4	76	54.7	0	0	---	0.00	29.947 
20:25	62.1	62.1	62.1	77	54.8	0	0	---	0.00	29.947 
20:30	61.8	61.8	61.8	78	54.9	0	0	---	0.00	29.946 
20:35	61.5	61.5	61.5	79	54.9	0	0	---	0.00	29.946 
20:40	61.2	61.2	61.2	80	55.0	0	0	---	0.00	29.946 
20:45	60.9	60.9	60.9	81	55.0	0	0	---	0.00	29.947 
20:50	60.5	60.5	60.5	81	54.6	0	0	---	0.00	29.947 
20:55	60.2	60.2	60.2	82	54.7	0	0	---	0.00	29.947 
21:00	59.9	59.9	59.9	82	54.4	0	0	---	0.00	29.952 
21:05	59.8	59.8	59.8	84	55.0	0	0	---	0.00	29.952 
21:10	59.5	59.5	59.5	85	55.0	0	0	---	0.00	29.952 
21:15	59.3	59.3	59.3	85	54.8	0	0	---	0.00	29.952 
21:20	59.2	59.2	59.2	85	54.7	0	0	---	0.00	29.952 
21:25	58.9	58.9	58.9	85	54.4	0	0	---	0.00	29.952 
21:30	58.7	58.7	58.7	86	54.5	0	0	---	0.00	29.955 
21:35	58.4	58.4	58.4	86	54.2	0	0	---	0.00	29.955 
21:40	58.3	58.3	58.3	87	54.4	0	0	---	0.00	29.955 
21:45	58.0	58.0	58.0	87	54.1	0	0	---	0.00	29.957 
21:50	57.8	57.8	57.8	87	54.0	0	0	---	0.00	29.957 
21:55	57.6	57.6	57.6	88	54.1	0	0	---	0.00	29.957 
22:00	57.5	57.5	57.5	88	54.0	0	0	---	0.00	29.963 
22:05	57.3	57.3	57.3	88	53.8	0	0	---	0.00	29.963 
22:10	57.2	57.2	57.2	89	54.0	0	0	---	0.00	29.963 
22:15	57.0	57.0	57.0	89	53.8	0	0	---	0.00	29.962 
22:20	56.7	56.7	56.7	89	53.5	0	0	---	0.00	29.962 
22:25	56.7	56.7	56.7	89	53.5	0	0	---	0.00	29.962 
22:30	56.6	56.6	56.6	90	53.7	0	0	---	0.00	29.962 
22:35	56.5	56.5	56.5	90	53.6	0	0	---	0.00	29.962 
22:40	56.3	56.3	56.3	90	53.4	0	0	---	0.00	29.962 
22:45	56.0	56.0	56.0	90	53.1	0	0	---	0.00	29.964 
22:50	55.9	55.9	55.9	90	53.0	0	0	---	0.00	29.964 
22:55	55.9	55.9	55.9	91	53.3	0	0	---	0.00	29.964 
23:00	55.7	55.7	55.7	91	53.1	0	1	292	0.00	29.966 
23:05	55.9	55.9	55.9	92	53.6	0	0	---	0.00	29.966 
23:10	55.9	55.9	55.9	92	53.6	0	0	---	0.00	29.966 
23:15	55.7	55.7	55.7	92	53.4	0	0	---	0.00	29.964 
23:20	55.6	55.6	55.6	92	53.3	0	0	---	0.00	29.964 
23:25	55.6	55.6	55.6	92	53.3	0	0	---	0.00	29.964 
23:30	55.4	55.4	55.4	92	53.1	0	0	---	0.00	29.970 
23:35	55.4	55.4	55.4	92	53.1	0	0	---	0.00	29.970 
23:40	55.3	55.3	55.3	92	53.0	0	0	---	0.00	29.970 
23:45	55.1	55.1	55.1	92	52.8	0	0	---	0.00	29.966 
23:50	55.1	55.1	55.1	92	52.8	0	0	---	0.00	29.966 
23:55	55.1	55.1	55.1	92	52.8	0	0	---	0.00	29.966 

CoCoRaHS
IN-AL-39
A2 Web Hosting
Creative Commons License
GoDaddy
search engine by freefind advanced

loaded 2018-11-21 01:47:00 • last modified 2010-11-18 10:43:29
Privacy PolicyDisclaimer
• wx.awcolley.com is powered by PmWiki v.2002016 •
• all content (unless otherwise noted) © 2018 A W Colley